Terminal Aerodrome Forecast
Issued by NWS Upton, NY

Home | Current Version | Previous Version | Text Only | Print | Product List | Glossary On
Versions: 1 2 3 4 5 6 7 8 9 10 11 12 13 14 15 16 17 18 19 20 21 22 23 24 25 26 27 28 29 30 31 32 33 34 35 36 37 38
000
FTUS41 KOKX 241720
TAFLGA
TAF
KLGA 241720Z 2418/2518 05012KT P6SM FEW035 BKN090
     FM242200 10010KT P6SM SCT040 BKN250
     FM250400 09007KT P6SM SCT030 BKN060
     FM250600 08009KT P6SM BKN025
     FM250900 07013KT 6SM -RA BR SCT008 BKN012
     FM251200 08016G24KT 2SM -RA BR OVC005=

USA.gov is the U.S. government's official web portal to all federal, state and local government web resources and services.